sensor_id;sensor_type;location;lat;lon;timestamp;P1;durP1;ratioP1;P2;durP2;ratioP2
6640;SDS011;3356;49.360;8.266;2022-09-06T00:01:44;6.50;;;4.90;;
6640;SDS011;3356;49.360;8.266;2022-09-06T00:03:45;6.50;;;5.07;;
6640;SDS011;3356;49.360;8.266;2022-09-06T00:05:47;4.90;;;4.50;;
6640;SDS011;3356;49.360;8.266;2022-09-06T00:07:48;6.73;;;4.77;;
6640;SDS011;3356;49.360;8.266;2022-09-06T00:09:50;5.60;;;4.40;;
6640;SDS011;3356;49.360;8.266;2022-09-06T00:11:52;4.53;;;4.13;;
6640;SDS011;3356;49.360;8.266;2022-09-06T00:13:53;4.43;;;4.00;;
6640;SDS011;3356;49.360;8.266;2022-09-06T00:15:54;4.87;;;4.33;;
6640;SDS011;3356;49.360;8.266;2022-09-06T00:17:59;6.10;;;4.37;;
6640;SDS011;3356;49.360;8.266;2022-09-06T00:20:04;4.50;;;4.10;;
6640;SDS011;3356;49.360;8.266;2022-09-06T00:22:08;5.03;;;4.50;;
6640;SDS011;3356;49.360;8.266;2022-09-06T00:24:09;4.23;;;3.93;;
6640;SDS011;3356;49.360;8.266;2022-09-06T00:26:11;7.00;;;4.40;;
6640;SDS011;3356;49.360;8.266;2022-09-06T00:28:12;5.07;;;4.07;;
6640;SDS011;3356;49.360;8.266;2022-09-06T00:30:15;4.53;;;4.13;;
6640;SDS011;3356;49.360;8.266;2022-09-06T00:32:16;4.90;;;4.50;;
6640;SDS011;3356;49.360;8.266;2022-09-06T00:34:17;4.57;;;4.17;;
6640;SDS011;3356;49.360;8.266;2022-09-06T00:36:18;4.33;;;3.93;;
6640;SDS011;3356;49.360;8.266;2022-09-06T00:38:20;4.73;;;4.33;;
6640;SDS011;3356;49.360;8.266;2022-09-06T00:40:21;4.87;;;4.43;;
6640;SDS011;3356;49.360;8.266;2022-09-06T00:42:23;7.60;;;4.63;;
6640;SDS011;3356;49.360;8.266;2022-09-06T00:44:24;5.67;;;3.93;;
6640;SDS011;3356;49.360;8.266;2022-09-06T00:46:26;6.63;;;4.20;;
6640;SDS011;3356;49.360;8.266;2022-09-06T00:48:29;4.50;;;4.13;;
6640;SDS011;3356;49.360;8.266;2022-09-06T00:50:30;5.40;;;4.37;;
6640;SDS011;3356;49.360;8.266;2022-09-06T00:52:32;5.33;;;4.53;;
6640;SDS011;3356;49.360;8.266;2022-09-06T00:54:34;4.23;;;3.83;;
6640;SDS011;3356;49.360;8.266;2022-09-06T00:56:37;5.73;;;4.83;;
6640;SDS011;3356;49.360;8.266;2022-09-06T00:58:41;4.37;;;4.07;;
6640;SDS011;3356;49.360;8.266;2022-09-06T01:00:43;4.73;;;4.30;;
6640;SDS011;3356;49.360;8.266;2022-09-06T01:02:44;4.50;;;4.10;;
6640;SDS011;3356;49.360;8.266;2022-09-06T01:04:46;4.70;;;4.33;;
6640;SDS011;3356;49.360;8.266;2022-09-06T01:16:39;5.50;;;2.73;;
6640;SDS011;3356;49.360;8.266;2022-09-06T01:19:17;5.30;;;3.10;;
6640;SDS011;3356;49.360;8.266;2022-09-06T01:30:09;3.50;;;3.20;;
6640;SDS011;3356;49.360;8.266;2022-09-06T01:36:27;7.80;;;2.90;;
6640;SDS011;3356;49.360;8.266;2022-09-06T01:38:34;4.33;;;3.47;;
6640;SDS011;3356;49.360;8.266;2022-09-06T01:40:35;3.97;;;3.30;;
6640;SDS011;3356;49.360;8.266;2022-09-06T01:42:37;5.33;;;3.00;;
6640;SDS011;3356;49.360;8.266;2022-09-06T01:44:42;4.23;;;3.83;;
6640;SDS011;3356;49.360;8.266;2022-09-06T01:47:12;5.90;;;3.77;;
6640;SDS011;3356;49.360;8.266;2022-09-06T01:54:14;5.20;;;3.70;;
6640;SDS011;3356;49.360;8.266;2022-09-06T01:56:36;5.97;;;4.00;;
6640;SDS011;3356;49.360;8.266;2022-09-06T02:01:42;4.57;;;3.70;;
6640;SDS011;3356;49.360;8.266;2022-09-06T02:06:10;5.73;;;4.30;;
6640;SDS011;3356;49.360;8.266;2022-09-06T02:08:18;6.70;;;3.90;;
6640;SDS011;3356;49.360;8.266;2022-09-06T02:10:30;7.73;;;4.00;;
6640;SDS011;3356;49.360;8.266;2022-09-06T02:12:38;5.07;;;3.23;;
6640;SDS011;3356;49.360;8.266;2022-09-06T02:14:44;3.70;;;3.40;;
6640;SDS011;3356;49.360;8.266;2022-09-06T02:17:00;5.80;;;4.00;;
6640;SDS011;3356;49.360;8.266;2022-09-06T02:19:05;4.57;;;3.83;;
6640;SDS011;3356;49.360;8.266;2022-09-06T02:21:12;6.50;;;3.73;;
6640;SDS011;3356;49.360;8.266;2022-09-06T02:23:16;7.20;;;3.63;;
6640;SDS011;3356;49.360;8.266;2022-09-06T02:25:23;20.60;;;5.27;;
6640;SDS011;3356;49.360;8.266;2022-09-06T02:27:29;5.50;;;3.50;;
6640;SDS011;3356;49.360;8.266;2022-09-06T02:29:30;5.33;;;4.03;;
6640;SDS011;3356;49.360;8.266;2022-09-06T02:31:36;4.80;;;3.67;;
6640;SDS011;3356;49.360;8.266;2022-09-06T02:33:42;7.70;;;3.50;;
6640;SDS011;3356;49.360;8.266;2022-09-06T02:35:50;4.27;;;3.67;;
6640;SDS011;3356;49.360;8.266;2022-09-06T02:37:53;6.80;;;3.73;;
6640;SDS011;3356;49.360;8.266;2022-09-06T02:39:55;5.33;;;3.17;;
6640;SDS011;3356;49.360;8.266;2022-09-06T02:41:57;4.37;;;3.43;;
6640;SDS011;3356;49.360;8.266;2022-09-06T02:43:59;7.37;;;3.17;;
6640;SDS011;3356;49.360;8.266;2022-09-06T02:46:00;4.00;;;3.70;;
6640;SDS011;3356;49.360;8.266;2022-09-06T02:48:02;3.57;;;3.27;;
6640;SDS011;3356;49.360;8.266;2022-09-06T02:50:03;4.03;;;3.60;;
6640;SDS011;3356;49.360;8.266;2022-09-06T02:52:06;4.67;;;3.27;;
6640;SDS011;3356;49.360;8.266;2022-09-06T02:54:07;4.97;;;3.23;;
6640;SDS011;3356;49.360;8.266;2022-09-06T02:56:08;3.90;;;3.53;;
6640;SDS011;3356;49.360;8.266;2022-09-06T02:58:09;5.27;;;4.00;;
6640;SDS011;3356;49.360;8.266;2022-09-06T03:00:11;7.13;;;3.60;;
6640;SDS011;3356;49.360;8.266;2022-09-06T03:02:13;5.83;;;3.33;;
6640;SDS011;3356;49.360;8.266;2022-09-06T03:04:15;5.57;;;3.30;;
6640;SDS011;3356;49.360;8.266;2022-09-06T03:06:16;4.40;;;3.73;;
6640;SDS011;3356;49.360;8.266;2022-09-06T03:08:18;3.90;;;3.60;;
6640;SDS011;3356;49.360;8.266;2022-09-06T03:10:26;4.30;;;3.87;;
6640;SDS011;3356;49.360;8.266;2022-09-06T03:12:27;4.97;;;3.57;;
6640;SDS011;3356;49.360;8.266;2022-09-06T03:14:28;7.20;;;4.13;;
6640;SDS011;3356;49.360;8.266;2022-09-06T03:16:29;4.03;;;3.40;;
6640;SDS011;3356;49.360;8.266;2022-09-06T03:18:30;6.93;;;3.50;;
6640;SDS011;3356;49.360;8.266;2022-09-06T03:20:32;4.93;;;3.50;;
6640;SDS011;3356;49.360;8.266;2022-09-06T03:22:37;4.67;;;3.67;;
6640;SDS011;3356;49.360;8.266;2022-09-06T03:24:41;6.20;;;4.43;;
6640;SDS011;3356;49.360;8.266;2022-09-06T03:26:42;5.17;;;3.37;;
6640;SDS011;3356;49.360;8.266;2022-09-06T03:28:43;3.73;;;3.43;;
6640;SDS011;3356;49.360;8.266;2022-09-06T03:30:45;4.40;;;3.40;;
6640;SDS011;3356;49.360;8.266;2022-09-06T03:32:47;5.40;;;3.30;;
6640;SDS011;3356;49.360;8.266;2022-09-06T03:34:48;3.47;;;3.17;;
6640;SDS011;3356;49.360;8.266;2022-09-06T03:36:49;4.40;;;3.87;;
6640;SDS011;3356;49.360;8.266;2022-09-06T03:38:50;4.37;;;3.97;;
6640;SDS011;3356;49.360;8.266;2022-09-06T03:40:53;4.33;;;3.50;;
6640;SDS011;3356;49.360;8.266;2022-09-06T03:42:54;3.93;;;3.63;;
6640;SDS011;3356;49.360;8.266;2022-09-06T03:44:56;4.53;;;3.37;;
6640;SDS011;3356;49.360;8.266;2022-09-06T03:46:57;3.93;;;3.63;;
6640;SDS011;3356;49.360;8.266;2022-09-06T03:48:58;4.40;;;4.00;;
6640;SDS011;3356;49.360;8.266;2022-09-06T03:51:01;4.97;;;4.03;;
6640;SDS011;3356;49.360;8.266;2022-09-06T03:53:02;5.47;;;4.43;;
6640;SDS011;3356;49.360;8.266;2022-09-06T03:55:03;8.40;;;4.17;;
6640;SDS011;3356;49.360;8.266;2022-09-06T03:57:05;5.77;;;3.80;;
6640;SDS011;3356;49.360;8.266;2022-09-06T03:59:06;5.17;;;4.63;;
6640;SDS011;3356;49.360;8.266;2022-09-06T04:01:08;6.13;;;4.77;;
6640;SDS011;3356;49.360;8.266;2022-09-06T04:03:11;5.60;;;4.70;;
6640;SDS011;3356;49.360;8.266;2022-09-06T04:05:12;6.93;;;5.00;;
6640;SDS011;3356;49.360;8.266;2022-09-06T04:07:15;5.80;;;4.87;;
6640;SDS011;3356;49.360;8.266;2022-09-06T04:09:17;5.43;;;4.50;;
6640;SDS011;3356;49.360;8.266;2022-09-06T04:11:18;4.80;;;4.40;;
6640;SDS011;3356;49.360;8.266;2022-09-06T04:13:19;5.40;;;4.10;;
6640;SDS011;3356;49.360;8.266;2022-09-06T04:15:21;5.10;;;4.60;;
6640;SDS011;3356;49.360;8.266;2022-09-06T04:17:22;5.43;;;4.80;;
6640;SDS011;3356;49.360;8.266;2022-09-06T04:19:23;5.47;;;4.53;;
6640;SDS011;3356;49.360;8.266;2022-09-06T04:21:25;5.27;;;4.77;;
6640;SDS011;3356;49.360;8.266;2022-09-06T04:23:27;5.57;;;4.60;;
6640;SDS011;3356;49.360;8.266;2022-09-06T04:25:29;7.43;;;4.77;;
6640;SDS011;3356;49.360;8.266;2022-09-06T04:27:30;7.83;;;5.40;;
6640;SDS011;3356;49.360;8.266;2022-09-06T04:29:31;6.47;;;5.00;;
6640;SDS011;3356;49.360;8.266;2022-09-06T04:31:32;8.50;;;4.80;;
6640;SDS011;3356;49.360;8.266;2022-09-06T04:33:34;5.47;;;4.97;;
6640;SDS011;3356;49.360;8.266;2022-09-06T04:35:36;5.70;;;5.13;;
6640;SDS011;3356;49.360;8.266;2022-09-06T04:37:38;6.30;;;5.70;;
6640;SDS011;3356;49.360;8.266;2022-09-06T04:39:39;6.33;;;5.20;;
6640;SDS011;3356;49.360;8.266;2022-09-06T04:41:40;6.33;;;5.60;;
6640;SDS011;3356;49.360;8.266;2022-09-06T04:43:42;6.33;;;5.00;;
6640;SDS011;3356;49.360;8.266;2022-09-06T04:45:43;5.30;;;4.80;;
6640;SDS011;3356;49.360;8.266;2022-09-06T04:47:44;7.77;;;5.73;;
6640;SDS011;3356;49.360;8.266;2022-09-06T04:49:46;5.80;;;5.13;;
6640;SDS011;3356;49.360;8.266;2022-09-06T04:51:50;10.50;;;5.83;;
6640;SDS011;3356;49.360;8.266;2022-09-06T04:53:51;7.63;;;5.70;;
6640;SDS011;3356;49.360;8.266;2022-09-06T04:55:55;6.83;;;5.50;;
6640;SDS011;3356;49.360;8.266;2022-09-06T04:57:57;7.50;;;5.27;;
6640;SDS011;3356;49.360;8.266;2022-09-06T04:59:59;8.90;;;5.90;;
6640;SDS011;3356;49.360;8.266;2022-09-06T05:02:00;6.23;;;5.63;;
6640;SDS011;3356;49.360;8.266;2022-09-06T05:04:01;9.67;;;6.50;;
6640;SDS011;3356;49.360;8.266;2022-09-06T05:06:03;6.80;;;5.90;;
6640;SDS011;3356;49.360;8.266;2022-09-06T05:08:06;7.00;;;6.03;;
6640;SDS011;3356;49.360;8.266;2022-09-06T05:10:07;6.07;;;5.47;;
6640;SDS011;3356;49.360;8.266;2022-09-06T05:12:08;7.17;;;6.47;;
6640;SDS011;3356;49.360;8.266;2022-09-06T05:14:10;6.63;;;5.80;;
6640;SDS011;3356;49.360;8.266;2022-09-06T05:16:11;9.73;;;5.40;;
6640;SDS011;3356;49.360;8.266;2022-09-06T05:18:12;7.30;;;5.70;;
6640;SDS011;3356;49.360;8.266;2022-09-06T05:20:13;6.20;;;5.60;;
6640;SDS011;3356;49.360;8.266;2022-09-06T05:22:15;7.73;;;6.20;;
6640;SDS011;3356;49.360;8.266;2022-09-06T05:24:16;6.10;;;5.17;;
6640;SDS011;3356;49.360;8.266;2022-09-06T05:26:17;7.43;;;5.30;;
6640;SDS011;3356;49.360;8.266;2022-09-06T05:28:18;7.53;;;5.57;;
6640;SDS011;3356;49.360;8.266;2022-09-06T05:30:19;7.90;;;5.73;;
6640;SDS011;3356;49.360;8.266;2022-09-06T05:32:21;6.47;;;5.57;;
6640;SDS011;3356;49.360;8.266;2022-09-06T05:34:22;9.40;;;5.50;;
6640;SDS011;3356;49.360;8.266;2022-09-06T05:36:24;6.73;;;5.27;;
6640;SDS011;3356;49.360;8.266;2022-09-06T05:38:26;7.53;;;5.10;;
6640;SDS011;3356;49.360;8.266;2022-09-06T05:40:27;6.10;;;5.10;;
6640;SDS011;3356;49.360;8.266;2022-09-06T05:42:28;7.37;;;5.87;;
6640;SDS011;3356;49.360;8.266;2022-09-06T05:44:29;8.07;;;5.20;;
6640;SDS011;3356;49.360;8.266;2022-09-06T05:46:30;6.57;;;5.40;;
6640;SDS011;3356;49.360;8.266;2022-09-06T05:48:31;7.50;;;5.73;;
6640;SDS011;3356;49.360;8.266;2022-09-06T05:50:33;7.07;;;5.97;;
6640;SDS011;3356;49.360;8.266;2022-09-06T05:52:34;6.67;;;5.80;;
6640;SDS011;3356;49.360;8.266;2022-09-06T05:54:35;6.50;;;5.47;;
6640;SDS011;3356;49.360;8.266;2022-09-06T05:56:36;6.83;;;5.43;;
6640;SDS011;3356;49.360;8.266;2022-09-06T05:58:38;7.57;;;5.47;;
6640;SDS011;3356;49.360;8.266;2022-09-06T06:00:39;6.93;;;5.50;;
6640;SDS011;3356;49.360;8.266;2022-09-06T06:02:40;6.80;;;5.80;;
6640;SDS011;3356;49.360;8.266;2022-09-06T06:04:41;9.77;;;5.67;;
6640;SDS011;3356;49.360;8.266;2022-09-06T06:06:43;6.10;;;5.43;;
6640;SDS011;3356;49.360;8.266;2022-09-06T06:08:45;9.17;;;6.00;;
6640;SDS011;3356;49.360;8.266;2022-09-06T06:10:47;8.43;;;6.07;;
6640;SDS011;3356;49.360;8.266;2022-09-06T06:12:48;7.37;;;5.73;;
6640;SDS011;3356;49.360;8.266;2022-09-06T06:14:49;5.77;;;5.23;;
6640;SDS011;3356;49.360;8.266;2022-09-06T06:16:50;6.83;;;6.17;;
6640;SDS011;3356;49.360;8.266;2022-09-06T06:18:51;8.17;;;6.57;;
6640;SDS011;3356;49.360;8.266;2022-09-06T06:21:05;8.23;;;6.37;;
6640;SDS011;3356;49.360;8.266;2022-09-06T06:23:20;6.53;;;5.23;;
6640;SDS011;3356;49.360;8.266;2022-09-06T06:25:21;6.00;;;5.33;;
6640;SDS011;3356;49.360;8.266;2022-09-06T06:27:25;8.13;;;5.27;;
6640;SDS011;3356;49.360;8.266;2022-09-06T06:29:26;5.90;;;5.10;;
6640;SDS011;3356;49.360;8.266;2022-09-06T06:31:28;5.73;;;5.10;;
6640;SDS011;3356;49.360;8.266;2022-09-06T06:33:30;5.67;;;5.17;;
6640;SDS011;3356;49.360;8.266;2022-09-06T06:35:32;9.73;;;7.47;;
6640;SDS011;3356;49.360;8.266;2022-09-06T06:37:33;10.63;;;5.90;;
6640;SDS011;3356;49.360;8.266;2022-09-06T06:39:35;9.87;;;7.10;;
6640;SDS011;3356;49.360;8.266;2022-09-06T06:41:36;16.37;;;10.40;;
6640;SDS011;3356;49.360;8.266;2022-09-06T06:43:54;14.67;;;9.40;;
6640;SDS011;3356;49.360;8.266;2022-09-06T06:45:56;8.77;;;7.87;;
6640;SDS011;3356;49.360;8.266;2022-09-06T06:47:57;7.87;;;6.33;;
6640;SDS011;3356;49.360;8.266;2022-09-06T06:49:58;6.00;;;5.50;;
6640;SDS011;3356;49.360;8.266;2022-09-06T06:51:59;7.07;;;5.93;;
6640;SDS011;3356;49.360;8.266;2022-09-06T06:54:01;5.73;;;5.13;;
6640;SDS011;3356;49.360;8.266;2022-09-06T06:58:35;8.17;;;5.73;;
6640;SDS011;3356;49.360;8.266;2022-09-06T07:00:36;5.73;;;4.40;;
6640;SDS011;3356;49.360;8.266;2022-09-06T07:02:37;5.03;;;4.37;;
6640;SDS011;3356;49.360;8.266;2022-09-06T07:04:38;5.40;;;4.03;;
6640;SDS011;3356;49.360;8.266;2022-09-06T07:06:47;5.03;;;4.13;;
6640;SDS011;3356;49.360;8.266;2022-09-06T07:08:52;6.03;;;4.23;;
6640;SDS011;3356;49.360;8.266;2022-09-06T07:10:55;4.30;;;3.90;;
6640;SDS011;3356;49.360;8.266;2022-09-06T07:12:56;5.27;;;3.77;;
6640;SDS011;3356;49.360;8.266;2022-09-06T07:14:58;5.93;;;4.10;;
6640;SDS011;3356;49.360;8.266;2022-09-06T07:16:59;9.30;;;4.00;;
6640;SDS011;3356;49.360;8.266;2022-09-06T07:19:00;4.77;;;3.30;;
6640;SDS011;3356;49.360;8.266;2022-09-06T07:21:01;5.20;;;4.13;;
6640;SDS011;3356;49.360;8.266;2022-09-06T07:23:03;5.03;;;3.87;;
6640;SDS011;3356;49.360;8.266;2022-09-06T07:25:05;6.20;;;3.87;;
6640;SDS011;3356;49.360;8.266;2022-09-06T07:27:08;4.17;;;3.63;;
6640;SDS011;3356;49.360;8.266;2022-09-06T07:29:09;6.20;;;3.63;;
6640;SDS011;3356;49.360;8.266;2022-09-06T07:31:10;4.27;;;3.87;;
6640;SDS011;3356;49.360;8.266;2022-09-06T07:33:12;4.63;;;4.10;;
6640;SDS011;3356;49.360;8.266;2022-09-06T07:35:13;6.77;;;4.13;;
6640;SDS011;3356;49.360;8.266;2022-09-06T07:37:14;4.87;;;3.53;;
6640;SDS011;3356;49.360;8.266;2022-09-06T07:39:16;5.47;;;3.90;;
6640;SDS011;3356;49.360;8.266;2022-09-06T07:41:17;5.60;;;3.77;;
6640;SDS011;3356;49.360;8.266;2022-09-06T07:43:19;5.03;;;3.10;;
6640;SDS011;3356;49.360;8.266;2022-09-06T07:45:20;5.43;;;3.43;;
6640;SDS011;3356;49.360;8.266;2022-09-06T07:47:21;7.30;;;3.80;;
6640;SDS011;3356;49.360;8.266;2022-09-06T07:49:22;4.97;;;3.50;;
6640;SDS011;3356;49.360;8.266;2022-09-06T07:51:23;5.30;;;3.17;;
6640;SDS011;3356;49.360;8.266;2022-09-06T07:53:24;5.97;;;2.80;;
6640;SDS011;3356;49.360;8.266;2022-09-06T07:55:25;3.23;;;3.00;;
6640;SDS011;3356;49.360;8.266;2022-09-06T07:57:26;6.17;;;3.27;;
6640;SDS011;3356;49.360;8.266;2022-09-06T07:59:27;7.73;;;3.00;;
6640;SDS011;3356;49.360;8.266;2022-09-06T08:01:32;3.50;;;3.20;;
6640;SDS011;3356;49.360;8.266;2022-09-06T08:03:37;7.23;;;3.00;;
6640;SDS011;3356;49.360;8.266;2022-09-06T08:05:38;4.83;;;3.13;;
6640;SDS011;3356;49.360;8.266;2022-09-06T08:07:39;3.47;;;3.13;;
6640;SDS011;3356;49.360;8.266;2022-09-06T08:09:40;4.57;;;3.27;;
6640;SDS011;3356;49.360;8.266;2022-09-06T08:11:41;4.47;;;3.40;;
6640;SDS011;3356;49.360;8.266;2022-09-06T08:13:43;5.53;;;3.17;;
6640;SDS011;3356;49.360;8.266;2022-09-06T08:15:45;3.30;;;3.00;;
6640;SDS011;3356;49.360;8.266;2022-09-06T08:17:49;6.97;;;2.97;;
6640;SDS011;3356;49.360;8.266;2022-09-06T08:19:50;3.53;;;2.97;;
6640;SDS011;3356;49.360;8.266;2022-09-06T08:21:54;4.63;;;2.50;;
6640;SDS011;3356;49.360;8.266;2022-09-06T08:23:59;3.47;;;2.90;;
6640;SDS011;3356;49.360;8.266;2022-09-06T08:26:03;6.03;;;3.30;;
6640;SDS011;3356;49.360;8.266;2022-09-06T08:28:04;2.80;;;2.55;;
6640;SDS011;3356;49.360;8.266;2022-09-06T08:30:05;5.60;;;2.97;;
6640;SDS011;3356;49.360;8.266;2022-09-06T08:32:07;3.50;;;3.20;;
6640;SDS011;3356;49.360;8.266;2022-09-06T08:34:09;3.80;;;3.00;;
6640;SDS011;3356;49.360;8.266;2022-09-06T08:36:12;2.92;;;2.60;;
6640;SDS011;3356;49.360;8.266;2022-09-06T08:38:13;4.15;;;3.08;;
6640;SDS011;3356;49.360;8.266;2022-09-06T08:40:16;3.03;;;2.83;;
6640;SDS011;3356;49.360;8.266;2022-09-06T08:42:21;3.28;;;2.80;;
6640;SDS011;3356;49.360;8.266;2022-09-06T08:44:35;4.38;;;2.92;;
6640;SDS011;3356;49.360;8.266;2022-09-06T08:49:22;2.85;;;2.65;;
6640;SDS011;3356;49.360;8.266;2022-09-06T08:53:35;6.15;;;3.70;;
6640;SDS011;3356;49.360;8.266;2022-09-06T08:55:47;4.82;;;3.30;;
6640;SDS011;3356;49.360;8.266;2022-09-06T09:00:25;3.85;;;3.47;;
6640;SDS011;3356;49.360;8.266;2022-09-06T09:02:26;3.90;;;3.30;;
6640;SDS011;3356;49.360;8.266;2022-09-06T09:04:33;7.55;;;3.42;;
6640;SDS011;3356;49.360;8.266;2022-09-06T09:06:36;6.93;;;3.45;;
6640;SDS011;3356;49.360;8.266;2022-09-06T09:11:00;4.40;;;3.08;;
6640;SDS011;3356;49.360;8.266;2022-09-06T09:13:03;4.95;;;2.85;;
6640;SDS011;3356;49.360;8.266;2022-09-06T09:15:09;7.57;;;3.55;;
6640;SDS011;3356;49.360;8.266;2022-09-06T09:17:17;6.72;;;3.50;;
6640;SDS011;3356;49.360;8.266;2022-09-06T09:19:25;3.47;;;3.28;;
6640;SDS011;3356;49.360;8.266;2022-09-06T09:21:26;7.30;;;3.65;;
6640;SDS011;3356;49.360;8.266;2022-09-06T09:23:30;3.88;;;3.20;;
6640;SDS011;3356;49.360;8.266;2022-09-06T09:25:32;9.25;;;3.38;;
6640;SDS011;3356;49.360;8.266;2022-09-06T09:27:35;5.38;;;3.17;;
6640;SDS011;3356;49.360;8.266;2022-09-06T09:31:53;4.20;;;2.95;;
6640;SDS011;3356;49.360;8.266;2022-09-06T09:33:55;6.80;;;2.72;;
6640;SDS011;3356;49.360;8.266;2022-09-06T09:35:58;3.78;;;3.03;;
6640;SDS011;3356;49.360;8.266;2022-09-06T09:38:09;8.05;;;3.10;;
6640;SDS011;3356;49.360;8.266;2022-09-06T09:42:30;3.63;;;3.15;;
6640;SDS011;3356;49.360;8.266;2022-09-06T09:44:40;3.55;;;3.25;;
6640;SDS011;3356;49.360;8.266;2022-09-06T09:46:45;7.50;;;3.42;;
6640;SDS011;3356;49.360;8.266;2022-09-06T09:53:24;3.60;;;3.10;;
6640;SDS011;3356;49.360;8.266;2022-09-06T09:55:27;3.97;;;3.58;;
6640;SDS011;3356;49.360;8.266;2022-09-06T09:57:30;4.97;;;3.33;;
6640;SDS011;3356;49.360;8.266;2022-09-06T10:02:15;5.38;;;3.15;;
6640;SDS011;3356;49.360;8.266;2022-09-06T10:04:30;3.92;;;3.13;;
6640;SDS011;3356;49.360;8.266;2022-09-06T10:06:37;4.85;;;2.80;;
6640;SDS011;3356;49.360;8.266;2022-09-06T10:08:40;3.60;;;3.10;;
6640;SDS011;3356;49.360;8.266;2022-09-06T10:10:46;6.65;;;2.90;;
6640;SDS011;3356;49.360;8.266;2022-09-06T10:15:34;4.32;;;3.15;;
6640;SDS011;3356;49.360;8.266;2022-09-06T10:17:47;5.85;;;3.15;;
6640;SDS011;3356;49.360;8.266;2022-09-06T10:19:51;5.97;;;3.55;;
6640;SDS011;3356;49.360;8.266;2022-09-06T10:21:58;3.63;;;2.65;;
6640;SDS011;3356;49.360;8.266;2022-09-06T10:25:09;5.15;;;3.40;;
6640;SDS011;3356;49.360;8.266;2022-09-06T10:27:05;4.60;;;2.90;;
6640;SDS011;3356;49.360;8.266;2022-09-06T10:29:18;2.88;;;2.67;;
6640;SDS011;3356;49.360;8.266;2022-09-06T10:31:46;3.20;;;2.95;;
6640;SDS011;3356;49.360;8.266;2022-09-06T10:36:39;6.07;;;2.83;;
6640;SDS011;3356;49.360;8.266;2022-09-06T10:38:57;3.63;;;2.42;;
6640;SDS011;3356;49.360;8.266;2022-09-06T10:46:20;6.32;;;3.30;;
6640;SDS011;3356;49.360;8.266;2022-09-06T10:48:30;3.30;;;2.83;;
6640;SDS011;3356;49.360;8.266;2022-09-06T10:52:57;5.65;;;3.00;;
6640;SDS011;3356;49.360;8.266;2022-09-06T10:55:13;4.63;;;2.55;;
6640;SDS011;3356;49.360;8.266;2022-09-06T10:57:20;3.35;;;2.60;;
6640;SDS011;3356;49.360;8.266;2022-09-06T10:59:34;10.73;;;3.55;;
6640;SDS011;3356;49.360;8.266;2022-09-06T11:04:00;5.47;;;3.10;;
6640;SDS011;3356;49.360;8.266;2022-09-06T11:06:09;4.13;;;2.53;;
6640;SDS011;3356;49.360;8.266;2022-09-06T11:08:14;4.30;;;3.15;;
6640;SDS011;3356;49.360;8.266;2022-09-06T11:10:39;5.90;;;2.63;;
6640;SDS011;3356;49.360;8.266;2022-09-06T11:15:04;4.78;;;2.70;;
6640;SDS011;3356;49.360;8.266;2022-09-06T11:17:59;3.70;;;2.72;;
6640;SDS011;3356;49.360;8.266;2022-09-06T11:19:43;5.90;;;2.80;;
6640;SDS011;3356;49.360;8.266;2022-09-06T11:22:18;5.22;;;2.65;;
6640;SDS011;3356;49.360;8.266;2022-09-06T11:26:44;3.13;;;2.50;;
6640;SDS011;3356;49.360;8.266;2022-09-06T11:29:22;8.48;;;3.05;;
6640;SDS011;3356;49.360;8.266;2022-09-06T11:31:28;4.25;;;2.42;;
6640;SDS011;3356;49.360;8.266;2022-09-06T11:33:37;5.85;;;2.80;;
6640;SDS011;3356;49.360;8.266;2022-09-06T11:35:40;6.75;;;3.03;;
6640;SDS011;3356;49.360;8.266;2022-09-06T11:37:47;3.40;;;2.70;;
6640;SDS011;3356;49.360;8.266;2022-09-06T11:40:05;5.20;;;2.45;;
6640;SDS011;3356;49.360;8.266;2022-09-06T11:43:08;4.97;;;2.83;;
6640;SDS011;3356;49.360;8.266;2022-09-06T11:45:11;4.85;;;2.58;;
6640;SDS011;3356;49.360;8.266;2022-09-06T11:49:44;6.13;;;2.60;;
6640;SDS011;3356;49.360;8.266;2022-09-06T11:51:49;4.18;;;2.50;;
6640;SDS011;3356;49.360;8.266;2022-09-06T11:58:09;4.07;;;2.60;;
6640;SDS011;3356;49.360;8.266;2022-09-06T12:00:20;2.53;;;2.22;;
6640;SDS011;3356;49.360;8.266;2022-09-06T12:07:13;5.82;;;2.50;;
6640;SDS011;3356;49.360;8.266;2022-09-06T12:09:31;3.33;;;2.30;;
6640;SDS011;3356;49.360;8.266;2022-09-06T12:15:53;2.13;;;1.75;;
6640;SDS011;3356;49.360;8.266;2022-09-06T12:17:58;4.63;;;1.90;;
6640;SDS011;3356;49.360;8.266;2022-09-06T12:20:01;4.70;;;1.98;;
6640;SDS011;3356;49.360;8.266;2022-09-06T12:26:51;3.45;;;2.13;;
6640;SDS011;3356;49.360;8.266;2022-09-06T12:29:15;3.20;;;2.50;;
6640;SDS011;3356;49.360;8.266;2022-09-06T12:33:29;3.25;;;1.90;;
6640;SDS011;3356;49.360;8.266;2022-09-06T12:35:36;7.68;;;2.30;;
6640;SDS011;3356;49.360;8.266;2022-09-06T12:37:49;6.13;;;2.58;;
6640;SDS011;3356;49.360;8.266;2022-09-06T12:39:58;3.15;;;2.15;;
6640;SDS011;3356;49.360;8.266;2022-09-06T12:42:05;4.35;;;2.60;;
6640;SDS011;3356;49.360;8.266;2022-09-06T12:44:12;6.15;;;2.30;;
6640;SDS011;3356;49.360;8.266;2022-09-06T12:46:16;2.67;;;2.13;;
6640;SDS011;3356;49.360;8.266;2022-09-06T12:48:26;5.00;;;2.15;;
6640;SDS011;3356;49.360;8.266;2022-09-06T12:50:33;2.03;;;1.70;;
6640;SDS011;3356;49.360;8.266;2022-09-06T12:55:00;3.70;;;2.30;;
6640;SDS011;3356;49.360;8.266;2022-09-06T12:57:19;4.22;;;2.00;;
6640;SDS011;3356;49.360;8.266;2022-09-06T12:59:23;3.13;;;2.05;;
6640;SDS011;3356;49.360;8.266;2022-09-06T13:01:28;2.22;;;1.70;;
6640;SDS011;3356;49.360;8.266;2022-09-06T13:03:48;3.60;;;1.88;;
6640;SDS011;3356;49.360;8.266;2022-09-06T13:05:57;1.83;;;1.25;;
6640;SDS011;3356;49.360;8.266;2022-09-06T13:10:33;2.53;;;1.58;;
6640;SDS011;3356;49.360;8.266;2022-09-06T13:12:41;4.00;;;1.40;;
6640;SDS011;3356;49.360;8.266;2022-09-06T13:14:50;3.05;;;1.88;;
6640;SDS011;3356;49.360;8.266;2022-09-06T13:16:55;4.85;;;1.73;;
6640;SDS011;3356;49.360;8.266;2022-09-06T13:19:16;4.13;;;1.60;;
6640;SDS011;3356;49.360;8.266;2022-09-06T13:21:45;3.40;;;1.77;;
6640;SDS011;3356;49.360;8.266;2022-09-06T13:23:48;5.00;;;1.90;;
6640;SDS011;3356;49.360;8.266;2022-09-06T13:25:56;3.42;;;1.92;;
6640;SDS011;3356;49.360;8.266;2022-09-06T13:27:59;2.28;;;1.45;;
6640;SDS011;3356;49.360;8.266;2022-09-06T13:30:07;4.65;;;1.98;;
6640;SDS011;3356;49.360;8.266;2022-09-06T13:32:11;6.68;;;1.98;;
6640;SDS011;3356;49.360;8.266;2022-09-06T13:34:24;2.65;;;1.73;;
6640;SDS011;3356;49.360;8.266;2022-09-06T13:36:28;3.50;;;1.95;;
6640;SDS011;3356;49.360;8.266;2022-09-06T13:40:42;3.55;;;1.90;;
6640;SDS011;3356;49.360;8.266;2022-09-06T13:42:45;5.05;;;1.95;;
6640;SDS011;3356;49.360;8.266;2022-09-06T13:44:51;4.00;;;2.00;;
6640;SDS011;3356;49.360;8.266;2022-09-06T13:46:53;4.90;;;1.90;;
6640;SDS011;3356;49.360;8.266;2022-09-06T13:48:58;2.90;;;2.00;;
6640;SDS011;3356;49.360;8.266;2022-09-06T13:51:01;5.75;;;2.13;;
6640;SDS011;3356;49.360;8.266;2022-09-06T13:53:05;5.00;;;2.20;;
6640;SDS011;3356;49.360;8.266;2022-09-06T13:55:12;4.22;;;2.03;;
6640;SDS011;3356;49.360;8.266;2022-09-06T13:57:18;1.77;;;1.38;;
6640;SDS011;3356;49.360;8.266;2022-09-06T13:59:21;1.92;;;1.40;;
6640;SDS011;3356;49.360;8.266;2022-09-06T14:01:27;2.97;;;1.80;;
6640;SDS011;3356;49.360;8.266;2022-09-06T14:03:29;2.50;;;2.10;;
6640;SDS011;3356;49.360;8.266;2022-09-06T14:05:33;3.08;;;1.40;;
6640;SDS011;3356;49.360;8.266;2022-09-06T14:07:39;7.10;;;1.95;;
6640;SDS011;3356;49.360;8.266;2022-09-06T14:09:42;7.20;;;1.83;;
6640;SDS011;3356;49.360;8.266;2022-09-06T14:11:44;5.10;;;1.65;;
6640;SDS011;3356;49.360;8.266;2022-09-06T14:13:48;5.30;;;1.63;;
6640;SDS011;3356;49.360;8.266;2022-09-06T14:15:49;2.75;;;1.50;;
6640;SDS011;3356;49.360;8.266;2022-09-06T14:17:53;4.38;;;1.63;;
6640;SDS011;3356;49.360;8.266;2022-09-06T14:19:58;3.00;;;1.75;;
6640;SDS011;3356;49.360;8.266;2022-09-06T14:22:00;4.22;;;2.03;;
6640;SDS011;3356;49.360;8.266;2022-09-06T14:24:03;3.78;;;1.80;;
6640;SDS011;3356;49.360;8.266;2022-09-06T14:26:08;6.47;;;1.42;;
6640;SDS011;3356;49.360;8.266;2022-09-06T14:28:15;5.22;;;1.88;;
6640;SDS011;3356;49.360;8.266;2022-09-06T14:30:18;5.50;;;2.03;;
6640;SDS011;3356;49.360;8.266;2022-09-06T14:32:20;9.90;;;2.65;;
6640;SDS011;3356;49.360;8.266;2022-09-06T14:34:24;3.28;;;2.10;;
6640;SDS011;3356;49.360;8.266;2022-09-06T14:36:27;7.90;;;2.08;;
6640;SDS011;3356;49.360;8.266;2022-09-06T14:38:33;2.88;;;1.80;;
6640;SDS011;3356;49.360;8.266;2022-09-06T14:40:37;4.82;;;1.70;;
6640;SDS011;3356;49.360;8.266;2022-09-06T14:42:45;4.10;;;2.15;;